sensor_id;sensor_type;location;lat;lon;timestamp;P1;durP1;ratioP1;P2;durP2;ratioP2
15096;SDS011;7649;52.084;7.478;2022-08-19T00:00:03;8.13;;;7.53;;
15096;SDS011;7649;52.084;7.478;2022-08-19T00:02:33;8.70;;;7.90;;
15096;SDS011;7649;52.084;7.478;2022-08-19T00:05:01;8.82;;;8.02;;
15096;SDS011;7649;52.084;7.478;2022-08-19T00:07:30;8.40;;;7.80;;
15096;SDS011;7649;52.084;7.478;2022-08-19T00:09:59;9.57;;;8.13;;
15096;SDS011;7649;52.084;7.478;2022-08-19T00:12:27;8.40;;;7.60;;
15096;SDS011;7649;52.084;7.478;2022-08-19T00:14:55;8.32;;;7.60;;
15096;SDS011;7649;52.084;7.478;2022-08-19T00:17:25;8.13;;;7.38;;
15096;SDS011;7649;52.084;7.478;2022-08-19T00:19:54;8.40;;;7.70;;
15096;SDS011;7649;52.084;7.478;2022-08-19T00:22:22;8.25;;;7.65;;
15096;SDS011;7649;52.084;7.478;2022-08-19T00:24:50;8.23;;;7.47;;
15096;SDS011;7649;52.084;7.478;2022-08-19T00:27:19;9.20;;;7.80;;
15096;SDS011;7649;52.084;7.478;2022-08-19T00:29:52;7.82;;;7.07;;
15096;SDS011;7649;52.084;7.478;2022-08-19T00:32:20;8.68;;;7.88;;
15096;SDS011;7649;52.084;7.478;2022-08-19T00:34:52;8.55;;;7.95;;
15096;SDS011;7649;52.084;7.478;2022-08-19T00:37:21;8.85;;;7.78;;
15096;SDS011;7649;52.084;7.478;2022-08-19T00:39:49;9.63;;;8.63;;
15096;SDS011;7649;52.084;7.478;2022-08-19T00:42:19;8.68;;;7.80;;
15096;SDS011;7649;52.084;7.478;2022-08-19T00:44:48;9.02;;;8.27;;
15096;SDS011;7649;52.084;7.478;2022-08-19T00:47:16;9.40;;;8.50;;
15096;SDS011;7649;52.084;7.478;2022-08-19T00:49:47;9.07;;;8.23;;
15096;SDS011;7649;52.084;7.478;2022-08-19T00:52:20;8.45;;;7.75;;
15096;SDS011;7649;52.084;7.478;2022-08-19T00:54:49;8.73;;;8.07;;
15096;SDS011;7649;52.084;7.478;2022-08-19T00:57:20;9.52;;;8.73;;
15096;SDS011;7649;52.084;7.478;2022-08-19T00:59:51;9.00;;;8.30;;
15096;SDS011;7649;52.084;7.478;2022-08-19T01:02:28;9.82;;;8.95;;
15096;SDS011;7649;52.084;7.478;2022-08-19T01:04:57;9.15;;;8.35;;
15096;SDS011;7649;52.084;7.478;2022-08-19T01:07:26;9.63;;;8.77;;
15096;SDS011;7649;52.084;7.478;2022-08-19T01:10:03;9.38;;;8.65;;
15096;SDS011;7649;52.084;7.478;2022-08-19T01:12:32;10.73;;;8.75;;
15096;SDS011;7649;52.084;7.478;2022-08-19T01:15:01;9.93;;;8.98;;
15096;SDS011;7649;52.084;7.478;2022-08-19T01:17:30;10.70;;;9.68;;
15096;SDS011;7649;52.084;7.478;2022-08-19T01:19:59;9.90;;;9.00;;
15096;SDS011;7649;52.084;7.478;2022-08-19T01:22:29;10.25;;;9.35;;
15096;SDS011;7649;52.084;7.478;2022-08-19T01:24:59;10.07;;;9.15;;
15096;SDS011;7649;52.084;7.478;2022-08-19T01:27:37;12.82;;;9.70;;
15096;SDS011;7649;52.084;7.478;2022-08-19T01:30:09;10.10;;;9.20;;
15096;SDS011;7649;52.084;7.478;2022-08-19T01:32:37;10.77;;;9.77;;
15096;SDS011;7649;52.084;7.478;2022-08-19T01:35:06;10.88;;;9.88;;
15096;SDS011;7649;52.084;7.478;2022-08-19T01:37:42;11.82;;;10.73;;
15096;SDS011;7649;52.084;7.478;2022-08-19T01:40:11;11.57;;;10.45;;
15096;SDS011;7649;52.084;7.478;2022-08-19T01:42:40;11.80;;;10.82;;
15096;SDS011;7649;52.084;7.478;2022-08-19T01:45:08;12.55;;;11.40;;
15096;SDS011;7649;52.084;7.478;2022-08-19T01:47:37;12.23;;;11.20;;
15096;SDS011;7649;52.084;7.478;2022-08-19T01:50:06;11.98;;;10.88;;
15096;SDS011;7649;52.084;7.478;2022-08-19T01:52:34;11.98;;;10.75;;
15096;SDS011;7649;52.084;7.478;2022-08-19T01:55:05;12.20;;;11.10;;
15096;SDS011;7649;52.084;7.478;2022-08-19T01:57:34;12.20;;;11.10;;
15096;SDS011;7649;52.084;7.478;2022-08-19T02:00:03;13.15;;;11.80;;
15096;SDS011;7649;52.084;7.478;2022-08-19T02:02:32;11.98;;;10.73;;
15096;SDS011;7649;52.084;7.478;2022-08-19T02:05:00;12.77;;;11.35;;
15096;SDS011;7649;52.084;7.478;2022-08-19T02:07:28;12.43;;;11.43;;
15096;SDS011;7649;52.084;7.478;2022-08-19T02:09:58;12.43;;;11.23;;
15096;SDS011;7649;52.084;7.478;2022-08-19T02:12:38;12.02;;;11.13;;
15096;SDS011;7649;52.084;7.478;2022-08-19T02:15:07;11.93;;;10.93;;
15096;SDS011;7649;52.084;7.478;2022-08-19T02:17:35;11.25;;;10.20;;
15096;SDS011;7649;52.084;7.478;2022-08-19T02:20:04;13.07;;;11.88;;
15096;SDS011;7649;52.084;7.478;2022-08-19T02:22:33;11.88;;;10.80;;
15096;SDS011;7649;52.084;7.478;2022-08-19T02:25:02;12.68;;;11.40;;
15096;SDS011;7649;52.084;7.478;2022-08-19T02:27:31;12.90;;;11.80;;
15096;SDS011;7649;52.084;7.478;2022-08-19T02:30:01;13.35;;;12.15;;
15096;SDS011;7649;52.084;7.478;2022-08-19T02:32:29;13.23;;;11.95;;
15096;SDS011;7649;52.084;7.478;2022-08-19T02:34:59;13.40;;;12.07;;
15096;SDS011;7649;52.084;7.478;2022-08-19T02:37:37;13.18;;;11.82;;
15096;SDS011;7649;52.084;7.478;2022-08-19T02:40:23;13.05;;;12.00;;
15096;SDS011;7649;52.084;7.478;2022-08-19T02:42:51;13.10;;;11.88;;
15096;SDS011;7649;52.084;7.478;2022-08-19T02:45:21;14.02;;;12.60;;
15096;SDS011;7649;52.084;7.478;2022-08-19T02:47:49;14.23;;;12.93;;
15096;SDS011;7649;52.084;7.478;2022-08-19T02:50:18;14.57;;;13.27;;
15096;SDS011;7649;52.084;7.478;2022-08-19T02:52:47;13.80;;;12.70;;
15096;SDS011;7649;52.084;7.478;2022-08-19T02:55:16;12.73;;;11.52;;
15096;SDS011;7649;52.084;7.478;2022-08-19T02:57:44;13.55;;;12.25;;
15096;SDS011;7649;52.084;7.478;2022-08-19T03:00:13;13.07;;;11.93;;
15096;SDS011;7649;52.084;7.478;2022-08-19T03:02:42;13.40;;;12.18;;
15096;SDS011;7649;52.084;7.478;2022-08-19T03:05:12;14.32;;;12.93;;
15096;SDS011;7649;52.084;7.478;2022-08-19T03:07:41;13.55;;;12.35;;
15096;SDS011;7649;52.084;7.478;2022-08-19T03:10:09;14.35;;;13.13;;
15096;SDS011;7649;52.084;7.478;2022-08-19T03:12:37;14.38;;;13.02;;
15096;SDS011;7649;52.084;7.478;2022-08-19T03:15:06;13.87;;;12.57;;
15096;SDS011;7649;52.084;7.478;2022-08-19T03:17:35;14.23;;;13.03;;
15096;SDS011;7649;52.084;7.478;2022-08-19T03:20:06;14.97;;;13.77;;
15096;SDS011;7649;52.084;7.478;2022-08-19T03:22:34;14.97;;;13.67;;
15096;SDS011;7649;52.084;7.478;2022-08-19T03:25:02;14.53;;;13.27;;
15096;SDS011;7649;52.084;7.478;2022-08-19T03:27:31;16.03;;;14.07;;
15096;SDS011;7649;52.084;7.478;2022-08-19T03:30:00;15.43;;;14.03;;
15096;SDS011;7649;52.084;7.478;2022-08-19T03:32:28;15.77;;;14.27;;
15096;SDS011;7649;52.084;7.478;2022-08-19T03:34:58;15.37;;;13.93;;
15096;SDS011;7649;52.084;7.478;2022-08-19T03:37:28;14.67;;;13.43;;
15096;SDS011;7649;52.084;7.478;2022-08-19T03:39:56;16.27;;;14.77;;
15096;SDS011;7649;52.084;7.478;2022-08-19T03:42:24;16.57;;;15.17;;
15096;SDS011;7649;52.084;7.478;2022-08-19T03:45:13;16.27;;;14.87;;
15096;SDS011;7649;52.084;7.478;2022-08-19T03:47:41;17.30;;;15.70;;
15096;SDS011;7649;52.084;7.478;2022-08-19T03:50:09;16.67;;;14.93;;
15096;SDS011;7649;52.084;7.478;2022-08-19T03:52:39;14.87;;;13.67;;
15096;SDS011;7649;52.084;7.478;2022-08-19T03:55:12;16.98;;;15.35;;
15096;SDS011;7649;52.084;7.478;2022-08-19T03:57:40;15.67;;;14.27;;
15096;SDS011;7649;52.084;7.478;2022-08-19T04:00:09;16.00;;;14.50;;
15096;SDS011;7649;52.084;7.478;2022-08-19T04:02:39;18.80;;;14.63;;
15096;SDS011;7649;52.084;7.478;2022-08-19T04:05:08;16.93;;;15.17;;
15096;SDS011;7649;52.084;7.478;2022-08-19T04:07:36;18.47;;;15.30;;
15096;SDS011;7649;52.084;7.478;2022-08-19T04:10:06;17.77;;;15.87;;
15096;SDS011;7649;52.084;7.478;2022-08-19T04:12:35;17.30;;;15.50;;
15096;SDS011;7649;52.084;7.478;2022-08-19T04:15:05;16.47;;;14.77;;
15096;SDS011;7649;52.084;7.478;2022-08-19T04:17:34;17.10;;;15.40;;
15096;SDS011;7649;52.084;7.478;2022-08-19T04:20:03;17.93;;;16.10;;
15096;SDS011;7649;52.084;7.478;2022-08-19T04:22:32;15.73;;;14.13;;
15096;SDS011;7649;52.084;7.478;2022-08-19T04:25:00;18.17;;;15.37;;
15096;SDS011;7649;52.084;7.478;2022-08-19T04:27:30;16.97;;;15.27;;
15096;SDS011;7649;52.084;7.478;2022-08-19T04:30:01;16.60;;;15.00;;
15096;SDS011;7649;52.084;7.478;2022-08-19T04:32:29;15.33;;;13.90;;
15096;SDS011;7649;52.084;7.478;2022-08-19T04:34:58;16.40;;;14.70;;
15096;SDS011;7649;52.084;7.478;2022-08-19T04:37:42;15.30;;;13.80;;
15096;SDS011;7649;52.084;7.478;2022-08-19T04:40:11;16.37;;;14.90;;
15096;SDS011;7649;52.084;7.478;2022-08-19T04:42:57;18.00;;;14.37;;
15096;SDS011;7649;52.084;7.478;2022-08-19T04:45:27;16.50;;;14.80;;
15096;SDS011;7649;52.084;7.478;2022-08-19T04:48:09;18.17;;;15.23;;
15096;SDS011;7649;52.084;7.478;2022-08-19T04:50:52;17.60;;;15.20;;
15096;SDS011;7649;52.084;7.478;2022-08-19T04:53:24;16.63;;;14.90;;
15096;SDS011;7649;52.084;7.478;2022-08-19T04:55:54;19.33;;;15.40;;
15096;SDS011;7649;52.084;7.478;2022-08-19T04:58:25;18.27;;;16.63;;
15096;SDS011;7649;52.084;7.478;2022-08-19T05:00:54;18.33;;;15.57;;
15096;SDS011;7649;52.084;7.478;2022-08-19T05:03:22;18.90;;;16.90;;
15096;SDS011;7649;52.084;7.478;2022-08-19T05:05:55;19.13;;;16.07;;
15096;SDS011;7649;52.084;7.478;2022-08-19T05:08:24;18.20;;;16.37;;
15096;SDS011;7649;52.084;7.478;2022-08-19T05:10:58;17.83;;;16.03;;
15096;SDS011;7649;52.084;7.478;2022-08-19T05:13:40;19.33;;;15.23;;
15096;SDS011;7649;52.084;7.478;2022-08-19T05:16:09;21.53;;;15.77;;
15096;SDS011;7649;52.084;7.478;2022-08-19T05:18:38;21.83;;;16.40;;
15096;SDS011;7649;52.084;7.478;2022-08-19T05:21:36;19.33;;;16.30;;
15096;SDS011;7649;52.084;7.478;2022-08-19T05:24:22;18.95;;;16.48;;
15096;SDS011;7649;52.084;7.478;2022-08-19T05:26:51;17.63;;;15.93;;
15096;SDS011;7649;52.084;7.478;2022-08-19T05:29:24;18.02;;;16.17;;
15096;SDS011;7649;52.084;7.478;2022-08-19T05:32:02;20.70;;;16.83;;
15096;SDS011;7649;52.084;7.478;2022-08-19T05:34:31;19.48;;;16.65;;
15096;SDS011;7649;52.084;7.478;2022-08-19T05:37:01;17.65;;;15.95;;
15096;SDS011;7649;52.084;7.478;2022-08-19T05:39:31;16.48;;;14.77;;
15096;SDS011;7649;52.084;7.478;2022-08-19T05:42:00;16.40;;;14.60;;
15096;SDS011;7649;52.084;7.478;2022-08-19T05:44:32;15.30;;;13.75;;
15096;SDS011;7649;52.084;7.478;2022-08-19T05:47:02;20.67;;;14.43;;
15096;SDS011;7649;52.084;7.478;2022-08-19T05:49:32;17.05;;;15.27;;
15096;SDS011;7649;52.084;7.478;2022-08-19T05:52:01;19.90;;;16.50;;
15096;SDS011;7649;52.084;7.478;2022-08-19T05:54:30;19.83;;;15.65;;
15096;SDS011;7649;52.084;7.478;2022-08-19T05:56:59;23.00;;;17.35;;
15096;SDS011;7649;52.084;7.478;2022-08-19T05:59:29;33.13;;;17.13;;
15096;SDS011;7649;52.084;7.478;2022-08-19T06:01:58;27.80;;;16.65;;
15096;SDS011;7649;52.084;7.478;2022-08-19T06:04:27;21.45;;;16.85;;
15096;SDS011;7649;52.084;7.478;2022-08-19T06:06:55;23.98;;;16.45;;
15096;SDS011;7649;52.084;7.478;2022-08-19T06:09:24;19.20;;;16.27;;
15096;SDS011;7649;52.084;7.478;2022-08-19T06:11:54;19.38;;;17.45;;
15096;SDS011;7649;52.084;7.478;2022-08-19T06:14:27;19.73;;;17.65;;
15096;SDS011;7649;52.084;7.478;2022-08-19T06:17:00;20.65;;;18.67;;
15096;SDS011;7649;52.084;7.478;2022-08-19T06:19:32;32.30;;;20.17;;
15096;SDS011;7649;52.084;7.478;2022-08-19T06:22:06;20.40;;;18.30;;
15096;SDS011;7649;52.084;7.478;2022-08-19T06:24:34;20.25;;;16.30;;
15096;SDS011;7649;52.084;7.478;2022-08-19T06:27:02;19.23;;;17.35;;
15096;SDS011;7649;52.084;7.478;2022-08-19T06:29:32;20.27;;;16.80;;
15096;SDS011;7649;52.084;7.478;2022-08-19T06:32:02;17.48;;;15.77;;
15096;SDS011;7649;52.084;7.478;2022-08-19T06:34:32;16.85;;;15.15;;
15096;SDS011;7649;52.084;7.478;2022-08-19T06:37:00;16.67;;;14.90;;
15096;SDS011;7649;52.084;7.478;2022-08-19T06:39:30;54.72;;;17.83;;
15096;SDS011;7649;52.084;7.478;2022-08-19T06:42:00;26.73;;;15.45;;
15096;SDS011;7649;52.084;7.478;2022-08-19T06:44:30;15.85;;;13.65;;
15096;SDS011;7649;52.084;7.478;2022-08-19T06:47:09;21.52;;;14.23;;
15096;SDS011;7649;52.084;7.478;2022-08-19T06:49:40;22.83;;;13.82;;
15096;SDS011;7649;52.084;7.478;2022-08-19T06:52:09;17.58;;;13.88;;
15096;SDS011;7649;52.084;7.478;2022-08-19T06:54:39;31.17;;;14.40;;
15096;SDS011;7649;52.084;7.478;2022-08-19T06:57:21;15.00;;;12.13;;
15096;SDS011;7649;52.084;7.478;2022-08-19T06:59:50;19.80;;;11.65;;
15096;SDS011;7649;52.084;7.478;2022-08-19T07:02:20;14.18;;;11.07;;
15096;SDS011;7649;52.084;7.478;2022-08-19T07:04:52;16.70;;;10.25;;
15096;SDS011;7649;52.084;7.478;2022-08-19T07:07:24;11.43;;;10.13;;
15096;SDS011;7649;52.084;7.478;2022-08-19T07:09:52;14.23;;;9.13;;
15096;SDS011;7649;52.084;7.478;2022-08-19T07:12:25;14.07;;;8.98;;
15096;SDS011;7649;52.084;7.478;2022-08-19T07:14:56;9.80;;;8.65;;
15096;SDS011;7649;52.084;7.478;2022-08-19T07:17:25;10.65;;;8.80;;
15096;SDS011;7649;52.084;7.478;2022-08-19T07:19:54;12.68;;;8.90;;
15096;SDS011;7649;52.084;7.478;2022-08-19T07:22:22;12.95;;;9.15;;
15096;SDS011;7649;52.084;7.478;2022-08-19T07:24:51;9.82;;;8.32;;
15096;SDS011;7649;52.084;7.478;2022-08-19T07:27:19;36.97;;;11.63;;
15096;SDS011;7649;52.084;7.478;2022-08-19T07:29:50;9.40;;;7.72;;
15096;SDS011;7649;52.084;7.478;2022-08-19T07:32:23;8.95;;;7.55;;
15096;SDS011;7649;52.084;7.478;2022-08-19T07:34:54;11.43;;;7.35;;
15096;SDS011;7649;52.084;7.478;2022-08-19T07:37:22;10.20;;;7.82;;
15096;SDS011;7649;52.084;7.478;2022-08-19T07:39:58;8.23;;;6.78;;
15096;SDS011;7649;52.084;7.478;2022-08-19T07:42:26;7.50;;;6.60;;
15096;SDS011;7649;52.084;7.478;2022-08-19T07:44:58;19.52;;;8.25;;
15096;SDS011;7649;52.084;7.478;2022-08-19T07:47:26;7.22;;;6.13;;
15096;SDS011;7649;52.084;7.478;2022-08-19T07:50:18;6.57;;;5.93;;
15096;SDS011;7649;52.084;7.478;2022-08-19T07:52:47;6.55;;;5.80;;
15096;SDS011;7649;52.084;7.478;2022-08-19T07:55:17;8.48;;;5.75;;
15096;SDS011;7649;52.084;7.478;2022-08-19T07:58:05;8.18;;;5.07;;
15096;SDS011;7649;52.084;7.478;2022-08-19T08:00:34;6.97;;;6.30;;
15096;SDS011;7649;52.084;7.478;2022-08-19T08:03:02;5.70;;;5.13;;
15096;SDS011;7649;52.084;7.478;2022-08-19T08:05:32;7.03;;;5.88;;
15096;SDS011;7649;52.084;7.478;2022-08-19T08:08:18;7.82;;;5.68;;
15096;SDS011;7649;52.084;7.478;2022-08-19T08:11:13;5.78;;;5.38;;
15096;SDS011;7649;52.084;7.478;2022-08-19T08:13:45;12.32;;;6.30;;
15096;SDS011;7649;52.084;7.478;2022-08-19T08:16:29;5.95;;;5.30;;
15096;SDS011;7649;52.084;7.478;2022-08-19T08:19:00;7.80;;;5.57;;
15096;SDS011;7649;52.084;7.478;2022-08-19T08:21:41;8.98;;;5.25;;
15096;SDS011;7649;52.084;7.478;2022-08-19T08:24:10;5.28;;;4.80;;
15096;SDS011;7649;52.084;7.478;2022-08-19T08:26:39;12.75;;;6.03;;
15096;SDS011;7649;52.084;7.478;2022-08-19T08:29:17;4.75;;;4.25;;
15096;SDS011;7649;52.084;7.478;2022-08-19T08:31:46;5.78;;;5.15;;
15096;SDS011;7649;52.084;7.478;2022-08-19T08:34:24;7.25;;;5.28;;
15096;SDS011;7649;52.084;7.478;2022-08-19T08:36:54;6.13;;;5.47;;
15096;SDS011;7649;52.084;7.478;2022-08-19T08:39:23;5.97;;;4.93;;
15096;SDS011;7649;52.084;7.478;2022-08-19T08:41:52;6.75;;;4.78;;
15096;SDS011;7649;52.084;7.478;2022-08-19T08:44:23;9.85;;;5.32;;
15096;SDS011;7649;52.084;7.478;2022-08-19T08:46:55;5.78;;;5.22;;
15096;SDS011;7649;52.084;7.478;2022-08-19T08:49:28;8.60;;;4.70;;
15096;SDS011;7649;52.084;7.478;2022-08-19T08:52:02;17.63;;;6.55;;
15096;SDS011;7649;52.084;7.478;2022-08-19T08:54:32;5.78;;;5.28;;
15096;SDS011;7649;52.084;7.478;2022-08-19T08:57:03;5.90;;;5.40;;
15096;SDS011;7649;52.084;7.478;2022-08-19T08:59:34;5.28;;;4.78;;
15096;SDS011;7649;52.084;7.478;2022-08-19T09:02:03;5.65;;;5.22;;
15096;SDS011;7649;52.084;7.478;2022-08-19T09:04:31;5.13;;;4.60;;
15096;SDS011;7649;52.084;7.478;2022-08-19T09:07:03;6.65;;;4.90;;
15096;SDS011;7649;52.084;7.478;2022-08-19T09:09:58;7.20;;;5.35;;
15096;SDS011;7649;52.084;7.478;2022-08-19T09:12:33;25.85;;;8.25;;
15096;SDS011;7649;52.084;7.478;2022-08-19T09:15:08;5.50;;;5.10;;
15096;SDS011;7649;52.084;7.478;2022-08-19T09:17:37;23.00;;;6.22;;
15096;SDS011;7649;52.084;7.478;2022-08-19T09:20:08;4.75;;;4.32;;
15096;SDS011;7649;52.084;7.478;2022-08-19T09:22:43;4.88;;;4.30;;
15096;SDS011;7649;52.084;7.478;2022-08-19T09:25:13;6.32;;;3.85;;
15096;SDS011;7649;52.084;7.478;2022-08-19T09:27:52;7.13;;;3.85;;
15096;SDS011;7649;52.084;7.478;2022-08-19T09:30:29;4.90;;;3.75;;
15096;SDS011;7649;52.084;7.478;2022-08-19T09:32:57;4.50;;;4.10;;
15096;SDS011;7649;52.084;7.478;2022-08-19T09:35:27;5.38;;;4.18;;
15096;SDS011;7649;52.084;7.478;2022-08-19T09:37:58;4.47;;;4.18;;
15096;SDS011;7649;52.084;7.478;2022-08-19T09:40:28;5.68;;;4.10;;
15096;SDS011;7649;52.084;7.478;2022-08-19T09:43:03;4.80;;;4.15;;
15096;SDS011;7649;52.084;7.478;2022-08-19T09:45:36;4.28;;;3.83;;
15096;SDS011;7649;52.084;7.478;2022-08-19T09:48:04;4.35;;;3.63;;
15096;SDS011;7649;52.084;7.478;2022-08-19T09:50:34;6.00;;;5.40;;
15096;SDS011;7649;52.084;7.478;2022-08-19T09:53:18;4.45;;;4.05;;
15096;SDS011;7649;52.084;7.478;2022-08-19T09:55:50;4.80;;;4.28;;
15096;SDS011;7649;52.084;7.478;2022-08-19T09:58:19;4.63;;;4.10;;
15096;SDS011;7649;52.084;7.478;2022-08-19T10:00:52;3.88;;;3.55;;
15096;SDS011;7649;52.084;7.478;2022-08-19T10:03:21;4.53;;;3.30;;
15096;SDS011;7649;52.084;7.478;2022-08-19T10:05:55;6.93;;;3.90;;
15096;SDS011;7649;52.084;7.478;2022-08-19T10:08:27;5.75;;;3.40;;
15096;SDS011;7649;52.084;7.478;2022-08-19T10:10:55;3.00;;;2.80;;
15096;SDS011;7649;52.084;7.478;2022-08-19T10:13:25;5.53;;;3.30;;
15096;SDS011;7649;52.084;7.478;2022-08-19T10:15:54;3.45;;;3.25;;
15096;SDS011;7649;52.084;7.478;2022-08-19T10:18:23;4.20;;;2.58;;
15096;SDS011;7649;52.084;7.478;2022-08-19T10:21:01;4.72;;;3.13;;
15096;SDS011;7649;52.084;7.478;2022-08-19T10:23:33;26.58;;;5.45;;
15096;SDS011;7649;52.084;7.478;2022-08-19T10:26:03;4.15;;;2.85;;
15096;SDS011;7649;52.084;7.478;2022-08-19T10:28:33;4.25;;;3.85;;
15096;SDS011;7649;52.084;7.478;2022-08-19T10:31:04;7.28;;;4.35;;
15096;SDS011;7649;52.084;7.478;2022-08-19T10:33:33;4.88;;;4.57;;
15096;SDS011;7649;52.084;7.478;2022-08-19T10:36:20;5.28;;;4.78;;
15096;SDS011;7649;52.084;7.478;2022-08-19T10:38:51;23.55;;;6.47;;
15096;SDS011;7649;52.084;7.478;2022-08-19T10:41:25;6.45;;;4.18;;
15096;SDS011;7649;52.084;7.478;2022-08-19T10:43:55;4.90;;;3.60;;
15096;SDS011;7649;52.084;7.478;2022-08-19T10:46:29;5.72;;;3.47;;
15096;SDS011;7649;52.084;7.478;2022-08-19T10:48:59;4.93;;;3.75;;
15096;SDS011;7649;52.084;7.478;2022-08-19T10:51:28;3.85;;;3.55;;
15096;SDS011;7649;52.084;7.478;2022-08-19T10:54:16;4.35;;;3.83;;
15096;SDS011;7649;52.084;7.478;2022-08-19T10:56:58;7.47;;;4.15;;
15096;SDS011;7649;52.084;7.478;2022-08-19T10:59:27;3.42;;;3.13;;
15096;SDS011;7649;52.084;7.478;2022-08-19T11:02:01;5.28;;;3.83;;
15096;SDS011;7649;52.084;7.478;2022-08-19T11:04:31;4.85;;;4.18;;
15096;SDS011;7649;52.084;7.478;2022-08-19T11:07:01;4.72;;;4.07;;
15096;SDS011;7649;52.084;7.478;2022-08-19T11:09:30;3.50;;;3.20;;
15096;SDS011;7649;52.084;7.478;2022-08-19T11:11:59;3.70;;;3.30;;
15096;SDS011;7649;52.084;7.478;2022-08-19T11:14:30;3.42;;;3.10;;
15096;SDS011;7649;52.084;7.478;2022-08-19T11:17:00;8.48;;;3.90;;
15096;SDS011;7649;52.084;7.478;2022-08-19T11:19:28;4.88;;;4.18;;
15096;SDS011;7649;52.084;7.478;2022-08-19T11:21:57;4.03;;;3.72;;
15096;SDS011;7649;52.084;7.478;2022-08-19T11:24:30;5.47;;;4.30;;
15096;SDS011;7649;52.084;7.478;2022-08-19T11:27:03;7.07;;;4.32;;
15096;SDS011;7649;52.084;7.478;2022-08-19T11:29:32;5.10;;;4.55;;
15096;SDS011;7649;52.084;7.478;2022-08-19T11:32:03;5.28;;;4.40;;
15096;SDS011;7649;52.084;7.478;2022-08-19T11:34:31;5.55;;;4.72;;
15096;SDS011;7649;52.084;7.478;2022-08-19T11:37:01;7.10;;;5.55;;
15096;SDS011;7649;52.084;7.478;2022-08-19T11:39:34;4.97;;;4.50;;
15096;SDS011;7649;52.084;7.478;2022-08-19T11:42:03;5.82;;;4.68;;
15096;SDS011;7649;52.084;7.478;2022-08-19T11:44:53;6.68;;;6.00;;
15096;SDS011;7649;52.084;7.478;2022-08-19T11:47:21;7.15;;;6.20;;
15096;SDS011;7649;52.084;7.478;2022-08-19T11:49:50;7.35;;;6.32;;
15096;SDS011;7649;52.084;7.478;2022-08-19T11:52:19;6.95;;;5.57;;
15096;SDS011;7649;52.084;7.478;2022-08-19T11:54:49;7.25;;;6.65;;
15096;SDS011;7649;52.084;7.478;2022-08-19T11:57:18;7.93;;;7.32;;
15096;SDS011;7649;52.084;7.478;2022-08-19T11:59:50;8.13;;;7.43;;
15096;SDS011;7649;52.084;7.478;2022-08-19T12:02:18;7.68;;;6.97;;
15096;SDS011;7649;52.084;7.478;2022-08-19T12:04:47;6.95;;;6.35;;
15096;SDS011;7649;52.084;7.478;2022-08-19T12:07:16;12.60;;;7.47;;
15096;SDS011;7649;52.084;7.478;2022-08-19T12:09:44;7.80;;;7.15;;
15096;SDS011;7649;52.084;7.478;2022-08-19T12:12:15;8.80;;;7.97;;
15096;SDS011;7649;52.084;7.478;2022-08-19T12:14:44;8.60;;;6.40;;
15096;SDS011;7649;52.084;7.478;2022-08-19T12:17:12;5.53;;;5.07;;
15096;SDS011;7649;52.084;7.478;2022-08-19T12:19:41;7.20;;;6.35;;
15096;SDS011;7649;52.084;7.478;2022-08-19T12:22:09;6.10;;;5.47;;
15096;SDS011;7649;52.084;7.478;2022-08-19T12:24:38;7.00;;;5.43;;
15096;SDS011;7649;52.084;7.478;2022-08-19T12:27:06;6.07;;;4.95;;
15096;SDS011;7649;52.084;7.478;2022-08-19T12:29:39;4.72;;;4.32;;
15096;SDS011;7649;52.084;7.478;2022-08-19T12:32:07;4.40;;;4.10;;
15096;SDS011;7649;52.084;7.478;2022-08-19T12:34:37;5.13;;;4.63;;
15096;SDS011;7649;52.084;7.478;2022-08-19T12:37:06;4.50;;;4.20;;
15096;SDS011;7649;52.084;7.478;2022-08-19T12:39:36;5.90;;;3.97;;
15096;SDS011;7649;52.084;7.478;2022-08-19T12:42:05;11.63;;;5.15;;
15096;SDS011;7649;52.084;7.478;2022-08-19T12:44:35;5.90;;;4.57;;
15096;SDS011;7649;52.084;7.478;2022-08-19T12:47:07;5.38;;;4.93;;
15096;SDS011;7649;52.084;7.478;2022-08-19T12:49:36;13.38;;;5.60;;
15096;SDS011;7649;52.084;7.478;2022-08-19T12:52:21;6.50;;;5.90;;
15096;SDS011;7649;52.084;7.478;2022-08-19T12:54:49;5.70;;;5.22;;
15096;SDS011;7649;52.084;7.478;2022-08-19T12:57:20;6.03;;;5.20;;
15096;SDS011;7649;52.084;7.478;2022-08-19T12:59:58;5.85;;;5.28;;
15096;SDS011;7649;52.084;7.478;2022-08-19T13:02:31;6.47;;;5.15;;
15096;SDS011;7649;52.084;7.478;2022-08-19T13:05:04;5.68;;;5.22;;
15096;SDS011;7649;52.084;7.478;2022-08-19T13:07:34;7.35;;;5.35;;
15096;SDS011;7649;52.084;7.478;2022-08-19T13:10:04;5.93;;;5.00;;
15096;SDS011;7649;52.084;7.478;2022-08-19T13:12:32;5.13;;;4.72;;
15096;SDS011;7649;52.084;7.478;2022-08-19T13:15:01;6.30;;;5.70;;
15096;SDS011;7649;52.084;7.478;2022-08-19T13:17:38;7.07;;;5.70;;
15096;SDS011;7649;52.084;7.478;2022-08-19T13:20:07;6.03;;;5.53;;
15096;SDS011;7649;52.084;7.478;2022-08-19T13:22:36;6.07;;;5.57;;
15096;SDS011;7649;52.084;7.478;2022-08-19T13:25:05;7.75;;;6.28;;
15096;SDS011;7649;52.084;7.478;2022-08-19T13:27:34;7.53;;;5.50;;
15096;SDS011;7649;52.084;7.478;2022-08-19T13:30:03;7.50;;;6.07;;
15096;SDS011;7649;52.084;7.478;2022-08-19T13:32:50;6.85;;;5.30;;
15096;SDS011;7649;52.084;7.478;2022-08-19T13:35:36;4.85;;;4.35;;
15096;SDS011;7649;52.084;7.478;2022-08-19T13:38:04;7.45;;;6.22;;
15096;SDS011;7649;52.084;7.478;2022-08-19T13:40:37;6.72;;;6.13;;
15096;SDS011;7649;52.084;7.478;2022-08-19T13:43:07;6.15;;;5.60;;
15096;SDS011;7649;52.084;7.478;2022-08-19T13:45:48;6.13;;;5.57;;
15096;SDS011;7649;52.084;7.478;2022-08-19T13:48:18;11.55;;;6.07;;
15096;SDS011;7649;52.084;7.478;2022-08-19T13:50:46;7.10;;;6.35;;
15096;SDS011;7649;52.084;7.478;2022-08-19T13:53:15;8.85;;;6.75;;
15096;SDS011;7649;52.084;7.478;2022-08-19T13:55:43;6.22;;;5.72;;
15096;SDS011;7649;52.084;7.478;2022-08-19T13:58:12;7.30;;;6.70;;
15096;SDS011;7649;52.084;7.478;2022-08-19T14:00:41;6.25;;;5.75;;
15096;SDS011;7649;52.084;7.478;2022-08-19T14:03:10;6.88;;;6.20;;
15096;SDS011;7649;52.084;7.478;2022-08-19T14:05:40;7.20;;;6.18;;
15096;SDS011;7649;52.084;7.478;2022-08-19T14:08:09;7.45;;;6.65;;
15096;SDS011;7649;52.084;7.478;2022-08-19T14:10:40;6.05;;;5.50;;
15096;SDS011;7649;52.084;7.478;2022-08-19T14:13:12;6.65;;;5.65;;
15096;SDS011;7649;52.084;7.478;2022-08-19T14:15:41;6.95;;;6.40;;
15096;SDS011;7649;52.084;7.478;2022-08-19T14:18:09;6.15;;;5.65;;
15096;SDS011;7649;52.084;7.478;2022-08-19T14:20:38;6.00;;;5.40;;
15096;SDS011;7649;52.084;7.478;2022-08-19T14:23:07;7.07;;;6.40;;
15096;SDS011;7649;52.084;7.478;2022-08-19T14:25:35;5.95;;;5.45;;
15096;SDS011;7649;52.084;7.478;2022-08-19T14:28:04;7.15;;;6.47;;
15096;SDS011;7649;52.084;7.478;2022-08-19T14:30:34;7.07;;;5.80;;
15096;SDS011;7649;52.084;7.478;2022-08-19T14:33:04;5.63;;;5.18;;
15096;SDS011;7649;52.084;7.478;2022-08-19T14:35:33;6.30;;;5.80;;
15096;SDS011;7649;52.084;7.478;2022-08-19T14:38:02;5.78;;;5.28;;
15096;SDS011;7649;52.084;7.478;2022-08-19T14:40:32;6.25;;;5.75;;
15096;SDS011;7649;52.084;7.478;2022-08-19T14:43:03;5.93;;;5.32;;
15096;SDS011;7649;52.084;7.478;2022-08-19T14:45:32;6.07;;;5.03;;
15096;SDS011;7649;52.084;7.478;2022-08-19T14:48:02;6.28;;;5.15;;
15096;SDS011;7649;52.084;7.478;2022-08-19T14:50:30;6.75;;;5.28;;
15096;SDS011;7649;52.084;7.478;2022-08-19T14:52:59;5.65;;;5.10;;
15096;SDS011;7649;52.084;7.478;2022-08-19T14:55:41;5.30;;;4.80;;
15096;SDS011;7649;52.084;7.478;2022-08-19T14:58:10;5.47;;;5.07;;
15096;SDS011;7649;52.084;7.478;2022-08-19T15:00:55;5.43;;;4.57;;
15096;SDS011;7649;52.084;7.478;2022-08-19T15:03:24;5.18;;;4.68;;
15096;SDS011;7649;52.084;7.478;2022-08-19T15:05:53;5.10;;;4.60;;
15096;SDS011;7649;52.084;7.478;2022-08-19T15:08:22;7.60;;;6.97;;
15096;SDS011;7649;52.084;7.478;2022-08-19T15:10:53;6.05;;;5.43;;
15096;SDS011;7649;52.084;7.478;2022-08-19T15:13:22;8.65;;;5.22;;